createdAt,value
2018-07-26T17:26:31.242Z,33.15
2018-07-26T17:34:57.340Z,32.50
2018-07-26T17:48:51.624Z,32.11
2018-07-26T17:53:11.116Z,32.12
2018-07-26T17:55:11.108Z,31.95
2018-07-26T17:56:52.675Z,31.77
2018-07-26T17:58:28.736Z,31.64
2018-07-26T18:00:15.322Z,31.53
2018-07-26T18:01:50.907Z,31.33
2018-07-26T18:03:29.322Z,31.21
2018-07-26T18:09:31.639Z,30.61
2018-07-26T18:13:24.215Z,30.28
2018-07-26T18:17:06.736Z,30.05
2018-07-26T18:19:12.412Z,29.83
2018-07-26T18:21:05.079Z,29.67
2018-07-26T18:22:57.238Z,29.51
2018-07-26T18:25:00.598Z,29.34
2018-07-26T18:26:49.999Z,29.31
2018-07-26T18:28:50.006Z,29.18
2018-07-26T18:36:59.035Z,28.55
2018-07-26T18:46:31.588Z,27.92
2018-07-26T18:48:24.619Z,27.79
2018-07-26T18:50:20.612Z,27.71
2018-07-26T19:04:23.326Z,26.80
2018-07-26T19:06:06.331Z,26.72
2018-07-26T19:08:02.590Z,26.62
2018-07-26T19:14:19.595Z,26.21
2018-07-26T19:18:43.981Z,25.87
2018-07-26T19:22:41.979Z,25.66
2018-07-26T19:24:29.706Z,25.60
2018-07-26T19:27:00.590Z,25.54
2018-07-26T19:28:40.362Z,25.44
2018-07-26T19:31:07.329Z,25.39
2018-07-26T19:33:05.296Z,25.34
2018-07-26T19:47:54.816Z,24.47
2018-07-26T20:03:13.592Z,23.94
2018-07-26T20:04:55.718Z,23.93
2018-07-26T20:07:00.589Z,23.91
2018-07-26T20:26:48.997Z,23.62
2018-07-26T20:28:39.001Z,23.64
2018-07-26T20:40:29.444Z,23.79
2018-07-26T20:50:50.705Z,24.04
2018-07-26T20:53:00.171Z,24.06
2018-07-26T20:54:57.277Z,24.00
2018-07-26T20:56:34.801Z,24.06
2018-07-26T20:58:14.443Z,24.15
2018-07-26T21:00:09.634Z,24.09
2018-07-26T21:08:38.657Z,24.12
2018-07-26T21:17:31.045Z,24.09
2018-07-26T21:23:41.314Z,23.92
2018-07-26T21:31:48.627Z,23.67
2018-07-26T21:33:40.350Z,23.71
2018-07-26T21:38:07.212Z,23.70
2018-07-26T21:45:07.837Z,23.85
2018-07-26T21:53:50.682Z,23.64
2018-07-26T22:11:25.789Z,22.80
2018-07-26T22:13:05.520Z,22.74
2018-07-26T22:14:48.863Z,22.67
2018-07-26T22:16:24.971Z,22.69
2018-07-26T22:18:01.604Z,22.62
2018-07-26T22:19:38.394Z,22.56
2018-07-26T22:21:14.229Z,22.46
2018-07-26T22:22:54.258Z,22.42
2018-07-26T22:24:32.368Z,22.40
2018-07-26T22:26:09.541Z,22.36
2018-07-26T22:27:48.760Z,22.24
2018-07-26T22:29:25.758Z,22.18
2018-07-26T22:31:03.038Z,22.06
2018-07-26T22:32:40.714Z,22.03
2018-07-26T22:34:17.038Z,21.99
2018-07-26T22:35:56.967Z,21.88
2018-07-26T22:37:35.352Z,21.81
2018-07-26T22:39:12.447Z,21.78
2018-07-26T22:40:50.205Z,21.75
2018-07-26T22:42:29.716Z,21.75
2018-07-26T22:44:09.121Z,21.70
2018-07-26T22:45:45.211Z,21.63
2018-07-26T22:47:20.805Z,21.59
2018-07-26T22:48:56.949Z,21.50
2018-07-26T22:50:33.791Z,21.52
2018-07-26T22:52:10.310Z,21.42
2018-07-26T22:53:47.425Z,21.33
2018-07-26T22:55:25.055Z,21.31
2018-07-26T22:57:01.562Z,21.27
2018-07-26T22:58:38.231Z,21.20
2018-07-26T23:00:17.580Z,21.17
2018-07-26T23:01:56.815Z,21.12
2018-07-26T23:03:34.650Z,21.08
2018-07-26T23:05:16.363Z,21.01
2018-07-26T23:06:56.686Z,20.98
2018-07-26T23:08:35.114Z,21.00
2018-07-26T23:10:18.740Z,21.02
2018-07-26T23:11:54.592Z,20.93
2018-07-26T23:13:30.930Z,20.86
2018-07-26T23:15:07.818Z,20.88
2018-07-26T23:16:49.710Z,20.83
2018-07-26T23:18:26.498Z,20.79
2018-07-26T23:20:03.996Z,20.71
2018-07-26T23:21:39.228Z,20.71
2018-07-26T23:23:15.304Z,20.68
2018-07-26T23:24:50.660Z,20.61
2018-07-26T23:26:26.066Z,20.60
2018-07-26T23:28:05.253Z,20.52
2018-07-26T23:29:41.521Z,20.47
2018-07-26T23:31:22.323Z,20.48
2018-07-26T23:32:58.488Z,20.42
2018-07-26T23:34:33.941Z,20.39
2018-07-26T23:36:10.687Z,20.42
2018-07-26T23:37:48.549Z,20.28
2018-07-26T23:39:27.068Z,20.26
2018-07-26T23:41:05.411Z,20.19
2018-07-26T23:42:42.121Z,20.14
2018-07-26T23:44:21.061Z,20.08
2018-07-26T23:46:00.770Z,20.07
2018-07-26T23:47:39.153Z,20.01
2018-07-26T23:49:25.311Z,19.92
2018-07-26T23:51:03.833Z,19.89
2018-07-26T23:52:43.122Z,19.88
2018-07-26T23:54:22.342Z,19.81
2018-07-26T23:57:19.599Z,19.81
2018-07-26T23:59:08.381Z,19.70
